sensor_id;sensor_type;location;lat;lon;timestamp;P1;durP1;ratioP1;P2;durP2;ratioP2
11496;SDS011;5805;51.542;7.230;2023-01-24T00:00:25;6.83;;;5.83;;
11496;SDS011;5805;51.542;7.230;2023-01-24T00:02:51;6.57;;;5.75;;
11496;SDS011;5805;51.542;7.230;2023-01-24T00:05:17;7.07;;;5.70;;
11496;SDS011;5805;51.542;7.230;2023-01-24T00:07:42;6.75;;;5.45;;
11496;SDS011;5805;51.542;7.230;2023-01-24T00:10:08;7.55;;;5.75;;
11496;SDS011;5805;51.542;7.230;2023-01-24T00:12:35;6.13;;;5.53;;
11496;SDS011;5805;51.542;7.230;2023-01-24T00:15:01;6.45;;;5.20;;
11496;SDS011;5805;51.542;7.230;2023-01-24T00:17:28;5.05;;;4.40;;
11496;SDS011;5805;51.542;7.230;2023-01-24T00:19:53;6.70;;;4.93;;
11496;SDS011;5805;51.542;7.230;2023-01-24T00:22:19;5.93;;;5.07;;
11496;SDS011;5805;51.542;7.230;2023-01-24T00:24:45;7.07;;;6.13;;
11496;SDS011;5805;51.542;7.230;2023-01-24T00:27:10;6.38;;;5.07;;
11496;SDS011;5805;51.542;7.230;2023-01-24T00:29:36;5.78;;;4.97;;
11496;SDS011;5805;51.542;7.230;2023-01-24T00:32:02;5.68;;;5.00;;
11496;SDS011;5805;51.542;7.230;2023-01-24T00:34:29;6.80;;;5.00;;
11496;SDS011;5805;51.542;7.230;2023-01-24T00:36:55;4.38;;;3.97;;
11496;SDS011;5805;51.542;7.230;2023-01-24T00:39:20;5.28;;;4.78;;
11496;SDS011;5805;51.542;7.230;2023-01-24T00:41:46;5.53;;;4.90;;
11496;SDS011;5805;51.542;7.230;2023-01-24T00:44:12;6.35;;;5.07;;
11496;SDS011;5805;51.542;7.230;2023-01-24T00:46:37;5.80;;;5.00;;
11496;SDS011;5805;51.542;7.230;2023-01-24T00:49:03;6.40;;;4.72;;
11496;SDS011;5805;51.542;7.230;2023-01-24T00:51:30;5.40;;;4.03;;
11496;SDS011;5805;51.542;7.230;2023-01-24T00:53:56;5.50;;;4.43;;
11496;SDS011;5805;51.542;7.230;2023-01-24T00:56:21;5.32;;;4.78;;
11496;SDS011;5805;51.542;7.230;2023-01-24T00:58:47;4.85;;;4.35;;
11496;SDS011;5805;51.542;7.230;2023-01-24T01:01:13;5.57;;;4.78;;
11496;SDS011;5805;51.542;7.230;2023-01-24T01:03:38;5.57;;;4.32;;
11496;SDS011;5805;51.542;7.230;2023-01-24T01:06:05;5.20;;;4.40;;
11496;SDS011;5805;51.542;7.230;2023-01-24T01:08:33;4.40;;;3.87;;
11496;SDS011;5805;51.542;7.230;2023-01-24T01:10:59;5.68;;;4.20;;
11496;SDS011;5805;51.542;7.230;2023-01-24T01:13:25;5.28;;;4.05;;
11496;SDS011;5805;51.542;7.230;2023-01-24T01:15:51;4.87;;;4.20;;
11496;SDS011;5805;51.542;7.230;2023-01-24T01:18:25;5.30;;;4.13;;
11496;SDS011;5805;51.542;7.230;2023-01-24T01:20:50;5.22;;;4.30;;
11496;SDS011;5805;51.542;7.230;2023-01-24T01:23:16;4.60;;;3.97;;
11496;SDS011;5805;51.542;7.230;2023-01-24T01:25:44;6.07;;;4.53;;
11496;SDS011;5805;51.542;7.230;2023-01-24T01:28:09;5.65;;;4.65;;
11496;SDS011;5805;51.542;7.230;2023-01-24T01:30:35;5.03;;;3.97;;
11496;SDS011;5805;51.542;7.230;2023-01-24T01:33:01;5.47;;;4.20;;
11496;SDS011;5805;51.542;7.230;2023-01-24T01:35:26;4.25;;;3.85;;
11496;SDS011;5805;51.542;7.230;2023-01-24T01:37:52;6.03;;;4.57;;
11496;SDS011;5805;51.542;7.230;2023-01-24T01:40:18;4.75;;;3.78;;
11496;SDS011;5805;51.542;7.230;2023-01-24T01:45:29;4.63;;;4.13;;
11496;SDS011;5805;51.542;7.230;2023-01-24T01:48:05;5.30;;;4.18;;
11496;SDS011;5805;51.542;7.230;2023-01-24T01:50:40;4.93;;;4.07;;
11496;SDS011;5805;51.542;7.230;2023-01-24T01:53:11;3.72;;;3.35;;
11496;SDS011;5805;51.542;7.230;2023-01-24T01:55:39;4.65;;;3.75;;
11496;SDS011;5805;51.542;7.230;2023-01-24T01:58:09;6.43;;;3.60;;
11496;SDS011;5805;51.542;7.230;2023-01-24T02:00:35;4.45;;;3.80;;
11496;SDS011;5805;51.542;7.230;2023-01-24T02:03:02;4.63;;;4.13;;
11496;SDS011;5805;51.542;7.230;2023-01-24T02:05:32;3.47;;;3.17;;
11496;SDS011;5805;51.542;7.230;2023-01-24T02:07:59;4.50;;;3.27;;
11496;SDS011;5805;51.542;7.230;2023-01-24T02:10:28;5.15;;;4.13;;
11496;SDS011;5805;51.542;7.230;2023-01-24T02:12:54;5.07;;;3.97;;
11496;SDS011;5805;51.542;7.230;2023-01-24T02:15:22;5.27;;;4.27;;
11496;SDS011;5805;51.542;7.230;2023-01-24T02:17:47;5.07;;;3.87;;
11496;SDS011;5805;51.542;7.230;2023-01-24T02:23:04;4.40;;;4.00;;
11496;SDS011;5805;51.542;7.230;2023-01-24T02:25:37;4.50;;;4.10;;
11496;SDS011;5805;51.542;7.230;2023-01-24T02:28:08;4.80;;;4.23;;
11496;SDS011;5805;51.542;7.230;2023-01-24T02:30:36;5.55;;;4.50;;
11496;SDS011;5805;51.542;7.230;2023-01-24T02:33:08;5.50;;;4.20;;
11496;SDS011;5805;51.542;7.230;2023-01-24T02:35:35;5.60;;;3.83;;
11496;SDS011;5805;51.542;7.230;2023-01-24T02:38:02;5.53;;;4.45;;
11496;SDS011;5805;51.542;7.230;2023-01-24T02:40:30;3.47;;;3.17;;
11496;SDS011;5805;51.542;7.230;2023-01-24T02:42:58;4.40;;;3.85;;
11496;SDS011;5805;51.542;7.230;2023-01-24T02:45:29;5.15;;;4.22;;
11496;SDS011;5805;51.542;7.230;2023-01-24T02:47:57;4.03;;;3.13;;
11496;SDS011;5805;51.542;7.230;2023-01-24T02:50:24;4.43;;;3.70;;
11496;SDS011;5805;51.542;7.230;2023-01-24T02:52:52;4.55;;;4.15;;
11496;SDS011;5805;51.542;7.230;2023-01-24T02:55:18;5.68;;;4.35;;
11496;SDS011;5805;51.542;7.230;2023-01-24T02:57:43;5.60;;;4.20;;
11496;SDS011;5805;51.542;7.230;2023-01-24T03:00:10;5.70;;;4.43;;
11496;SDS011;5805;51.542;7.230;2023-01-24T03:02:37;4.50;;;3.90;;
11496;SDS011;5805;51.542;7.230;2023-01-24T03:05:03;3.10;;;2.60;;
11496;SDS011;5805;51.542;7.230;2023-01-24T03:07:29;3.55;;;3.20;;
11496;SDS011;5805;51.542;7.230;2023-01-24T03:09:55;4.30;;;3.50;;
11496;SDS011;5805;51.542;7.230;2023-01-24T03:12:20;4.43;;;3.33;;
11496;SDS011;5805;51.542;7.230;2023-01-24T03:14:46;4.80;;;3.25;;
11496;SDS011;5805;51.542;7.230;2023-01-24T03:17:12;3.75;;;3.38;;
11496;SDS011;5805;51.542;7.230;2023-01-24T03:19:39;4.50;;;3.50;;
11496;SDS011;5805;51.542;7.230;2023-01-24T03:22:04;4.60;;;3.95;;
11496;SDS011;5805;51.542;7.230;2023-01-24T03:24:30;4.10;;;3.45;;
11496;SDS011;5805;51.542;7.230;2023-01-24T03:26:56;3.80;;;3.38;;
11496;SDS011;5805;51.542;7.230;2023-01-24T03:29:21;3.93;;;3.53;;
11496;SDS011;5805;51.542;7.230;2023-01-24T03:31:47;5.33;;;3.43;;
11496;SDS011;5805;51.542;7.230;2023-01-24T03:34:13;4.70;;;4.00;;
11496;SDS011;5805;51.542;7.230;2023-01-24T03:36:40;3.25;;;2.95;;
11496;SDS011;5805;51.542;7.230;2023-01-24T03:39:05;3.97;;;3.58;;
11496;SDS011;5805;51.542;7.230;2023-01-24T03:41:31;3.92;;;3.38;;
11496;SDS011;5805;51.542;7.230;2023-01-24T03:43:57;3.73;;;3.13;;
11496;SDS011;5805;51.542;7.230;2023-01-24T03:46:22;3.83;;;3.40;;
11496;SDS011;5805;51.542;7.230;2023-01-24T03:48:48;4.40;;;4.00;;
11496;SDS011;5805;51.542;7.230;2023-01-24T03:51:14;4.57;;;3.90;;
11496;SDS011;5805;51.542;7.230;2023-01-24T03:53:41;4.47;;;3.73;;
11496;SDS011;5805;51.542;7.230;2023-01-24T03:56:06;4.22;;;3.80;;
11496;SDS011;5805;51.542;7.230;2023-01-24T03:58:32;4.35;;;3.60;;
11496;SDS011;5805;51.542;7.230;2023-01-24T04:00:58;4.43;;;4.03;;
11496;SDS011;5805;51.542;7.230;2023-01-24T04:03:24;4.38;;;3.72;;
11496;SDS011;5805;51.542;7.230;2023-01-24T04:05:50;4.25;;;3.80;;
11496;SDS011;5805;51.542;7.230;2023-01-24T04:08:16;4.28;;;3.60;;
11496;SDS011;5805;51.542;7.230;2023-01-24T04:10:44;5.77;;;4.10;;
11496;SDS011;5805;51.542;7.230;2023-01-24T04:13:09;4.68;;;3.97;;
11496;SDS011;5805;51.542;7.230;2023-01-24T04:15:35;5.43;;;4.07;;
11496;SDS011;5805;51.542;7.230;2023-01-24T04:18:02;5.73;;;4.73;;
11496;SDS011;5805;51.542;7.230;2023-01-24T04:20:30;4.75;;;3.88;;
11496;SDS011;5805;51.542;7.230;2023-01-24T04:22:59;5.20;;;3.90;;
11496;SDS011;5805;51.542;7.230;2023-01-24T04:25:25;3.83;;;3.20;;
11496;SDS011;5805;51.542;7.230;2023-01-24T04:27:52;7.77;;;4.37;;
11496;SDS011;5805;51.542;7.230;2023-01-24T04:30:17;4.77;;;3.80;;
11496;SDS011;5805;51.542;7.230;2023-01-24T04:32:43;5.10;;;4.13;;
11496;SDS011;5805;51.542;7.230;2023-01-24T04:35:10;5.83;;;4.40;;
11496;SDS011;5805;51.542;7.230;2023-01-24T04:37:41;4.83;;;4.33;;
11496;SDS011;5805;51.542;7.230;2023-01-24T04:40:07;4.93;;;4.20;;
11496;SDS011;5805;51.542;7.230;2023-01-24T04:42:33;5.73;;;4.20;;
11496;SDS011;5805;51.542;7.230;2023-01-24T04:45:01;4.70;;;4.27;;
11496;SDS011;5805;51.542;7.230;2023-01-24T04:47:26;5.83;;;4.30;;
11496;SDS011;5805;51.542;7.230;2023-01-24T04:49:52;4.70;;;4.20;;
11496;SDS011;5805;51.542;7.230;2023-01-24T04:52:18;5.43;;;4.38;;
11496;SDS011;5805;51.542;7.230;2023-01-24T04:54:43;4.47;;;4.07;;
11496;SDS011;5805;51.542;7.230;2023-01-24T04:57:11;5.45;;;4.75;;
11496;SDS011;5805;51.542;7.230;2023-01-24T04:59:37;5.03;;;4.53;;
11496;SDS011;5805;51.542;7.230;2023-01-24T05:02:04;5.03;;;4.30;;
11496;SDS011;5805;51.542;7.230;2023-01-24T05:04:29;5.03;;;4.53;;
11496;SDS011;5805;51.542;7.230;2023-01-24T05:06:55;5.30;;;4.30;;
11496;SDS011;5805;51.542;7.230;2023-01-24T05:09:21;5.47;;;4.30;;
11496;SDS011;5805;51.542;7.230;2023-01-24T05:11:47;4.60;;;4.20;;
11496;SDS011;5805;51.542;7.230;2023-01-24T05:14:12;5.35;;;4.45;;
11496;SDS011;5805;51.542;7.230;2023-01-24T05:16:38;5.77;;;4.57;;
11496;SDS011;5805;51.542;7.230;2023-01-24T05:19:05;5.87;;;4.87;;
11496;SDS011;5805;51.542;7.230;2023-01-24T05:21:31;5.03;;;4.27;;
11496;SDS011;5805;51.542;7.230;2023-01-24T05:23:57;5.20;;;4.17;;
11496;SDS011;5805;51.542;7.230;2023-01-24T05:26:23;5.22;;;4.70;;
11496;SDS011;5805;51.542;7.230;2023-01-24T05:28:50;5.68;;;4.78;;
11496;SDS011;5805;51.542;7.230;2023-01-24T05:31:17;4.13;;;3.70;;
11496;SDS011;5805;51.542;7.230;2023-01-24T05:33:43;5.05;;;4.40;;
11496;SDS011;5805;51.542;7.230;2023-01-24T05:36:11;4.65;;;4.18;;
11496;SDS011;5805;51.542;7.230;2023-01-24T05:38:38;6.60;;;4.78;;
11496;SDS011;5805;51.542;7.230;2023-01-24T05:41:05;5.82;;;4.55;;
11496;SDS011;5805;51.542;7.230;2023-01-24T05:43:32;5.10;;;4.30;;
11496;SDS011;5805;51.542;7.230;2023-01-24T05:45:58;4.95;;;4.10;;
11496;SDS011;5805;51.542;7.230;2023-01-24T05:48:24;5.33;;;4.83;;
11496;SDS011;5805;51.542;7.230;2023-01-24T05:50:55;5.57;;;4.37;;
11496;SDS011;5805;51.542;7.230;2023-01-24T05:53:23;5.50;;;4.43;;
11496;SDS011;5805;51.542;7.230;2023-01-24T05:55:53;5.77;;;4.90;;
11496;SDS011;5805;51.542;7.230;2023-01-24T05:58:19;4.80;;;4.30;;
11496;SDS011;5805;51.542;7.230;2023-01-24T06:00:45;5.33;;;4.37;;
11496;SDS011;5805;51.542;7.230;2023-01-24T06:03:11;5.17;;;3.83;;
11496;SDS011;5805;51.542;7.230;2023-01-24T06:05:36;4.60;;;4.10;;
11496;SDS011;5805;51.542;7.230;2023-01-24T06:08:02;6.00;;;4.63;;
11496;SDS011;5805;51.542;7.230;2023-01-24T06:10:29;4.80;;;3.85;;
11496;SDS011;5805;51.542;7.230;2023-01-24T06:12:55;4.80;;;3.93;;
11496;SDS011;5805;51.542;7.230;2023-01-24T06:15:20;5.00;;;4.50;;
11496;SDS011;5805;51.542;7.230;2023-01-24T06:17:46;4.70;;;4.00;;
11496;SDS011;5805;51.542;7.230;2023-01-24T06:20:12;5.40;;;4.90;;
11496;SDS011;5805;51.542;7.230;2023-01-24T06:22:41;5.10;;;4.07;;
11496;SDS011;5805;51.542;7.230;2023-01-24T06:25:11;5.53;;;4.70;;
11496;SDS011;5805;51.542;7.230;2023-01-24T06:27:45;5.00;;;4.50;;
11496;SDS011;5805;51.542;7.230;2023-01-24T06:30:12;4.20;;;3.80;;
11496;SDS011;5805;51.542;7.230;2023-01-24T06:32:42;4.53;;;4.13;;
11496;SDS011;5805;51.542;7.230;2023-01-24T06:35:36;4.63;;;3.88;;
11496;SDS011;5805;51.542;7.230;2023-01-24T06:38:14;5.40;;;4.40;;
11496;SDS011;5805;51.542;7.230;2023-01-24T06:40:43;3.27;;;2.97;;
11496;SDS011;5805;51.542;7.230;2023-01-24T06:43:11;4.80;;;4.13;;
11496;SDS011;5805;51.542;7.230;2023-01-24T06:45:37;5.23;;;4.20;;
11496;SDS011;5805;51.542;7.230;2023-01-24T06:48:03;5.65;;;3.65;;
11496;SDS011;5805;51.542;7.230;2023-01-24T06:50:29;5.17;;;3.90;;
11496;SDS011;5805;51.542;7.230;2023-01-24T06:52:55;4.85;;;4.13;;
11496;SDS011;5805;51.542;7.230;2023-01-24T06:55:20;4.27;;;3.83;;
11496;SDS011;5805;51.542;7.230;2023-01-24T06:57:46;6.53;;;4.17;;
11496;SDS011;5805;51.542;7.230;2023-01-24T07:00:14;7.20;;;5.57;;
11496;SDS011;5805;51.542;7.230;2023-01-24T07:02:40;5.63;;;4.90;;
11496;SDS011;5805;51.542;7.230;2023-01-24T07:05:06;5.83;;;4.60;;
11496;SDS011;5805;51.542;7.230;2023-01-24T07:07:32;4.50;;;4.10;;
11496;SDS011;5805;51.542;7.230;2023-01-24T07:09:58;4.57;;;3.57;;
11496;SDS011;5805;51.542;7.230;2023-01-24T07:12:23;4.13;;;3.37;;
11496;SDS011;5805;51.542;7.230;2023-01-24T07:14:49;4.70;;;3.77;;
11496;SDS011;5805;51.542;7.230;2023-01-24T07:17:17;4.68;;;4.18;;
11496;SDS011;5805;51.542;7.230;2023-01-24T07:19:43;4.20;;;3.80;;
11496;SDS011;5805;51.542;7.230;2023-01-24T07:22:10;4.47;;;4.07;;
11496;SDS011;5805;51.542;7.230;2023-01-24T07:24:36;4.17;;;3.77;;
11496;SDS011;5805;51.542;7.230;2023-01-24T07:27:02;6.43;;;4.00;;
11496;SDS011;5805;51.542;7.230;2023-01-24T07:29:28;4.77;;;4.10;;
11496;SDS011;5805;51.542;7.230;2023-01-24T07:31:54;5.53;;;4.72;;
11496;SDS011;5805;51.542;7.230;2023-01-24T07:34:21;4.90;;;4.15;;
11496;SDS011;5805;51.542;7.230;2023-01-24T07:36:47;4.43;;;3.90;;
11496;SDS011;5805;51.542;7.230;2023-01-24T07:39:13;4.60;;;3.38;;
11496;SDS011;5805;51.542;7.230;2023-01-24T07:41:39;3.87;;;3.50;;
11496;SDS011;5805;51.542;7.230;2023-01-24T07:44:04;4.68;;;3.72;;
11496;SDS011;5805;51.542;7.230;2023-01-24T07:46:30;5.15;;;3.70;;
11496;SDS011;5805;51.542;7.230;2023-01-24T07:48:56;3.97;;;3.57;;
11496;SDS011;5805;51.542;7.230;2023-01-24T07:51:23;4.50;;;3.77;;
11496;SDS011;5805;51.542;7.230;2023-01-24T07:53:49;4.00;;;3.60;;
11496;SDS011;5805;51.542;7.230;2023-01-24T07:56:14;3.97;;;3.53;;
11496;SDS011;5805;51.542;7.230;2023-01-24T07:58:40;4.33;;;3.47;;
11496;SDS011;5805;51.542;7.230;2023-01-24T08:01:06;4.30;;;3.67;;
11496;SDS011;5805;51.542;7.230;2023-01-24T08:03:31;3.72;;;3.05;;
11496;SDS011;5805;51.542;7.230;2023-01-24T08:05:57;3.92;;;3.30;;
11496;SDS011;5805;51.542;7.230;2023-01-24T08:08:24;4.15;;;3.75;;
11496;SDS011;5805;51.542;7.230;2023-01-24T08:10:50;4.55;;;3.75;;
11496;SDS011;5805;51.542;7.230;2023-01-24T08:13:15;5.50;;;3.95;;
11496;SDS011;5805;51.542;7.230;2023-01-24T08:15:41;9.33;;;3.90;;
11496;SDS011;5805;51.542;7.230;2023-01-24T08:18:07;4.15;;;3.72;;
11496;SDS011;5805;51.542;7.230;2023-01-24T08:20:33;5.25;;;4.35;;
11496;SDS011;5805;51.542;7.230;2023-01-24T08:22:58;5.72;;;4.55;;
11496;SDS011;5805;51.542;7.230;2023-01-24T08:25:26;5.17;;;4.37;;
11496;SDS011;5805;51.542;7.230;2023-01-24T08:27:52;5.22;;;4.47;;
11496;SDS011;5805;51.542;7.230;2023-01-24T08:30:18;5.85;;;5.25;;
11496;SDS011;5805;51.542;7.230;2023-01-24T08:32:43;5.03;;;4.43;;
11496;SDS011;5805;51.542;7.230;2023-01-24T08:35:09;4.60;;;4.00;;
11496;SDS011;5805;51.542;7.230;2023-01-24T08:37:35;4.13;;;3.65;;
11496;SDS011;5805;51.542;7.230;2023-01-24T08:40:01;4.72;;;4.10;;
11496;SDS011;5805;51.542;7.230;2023-01-24T08:42:28;4.72;;;4.22;;
11496;SDS011;5805;51.542;7.230;2023-01-24T08:44:53;4.50;;;3.95;;
11496;SDS011;5805;51.542;7.230;2023-01-24T08:47:19;4.63;;;4.05;;
11496;SDS011;5805;51.542;7.230;2023-01-24T08:49:45;4.80;;;4.13;;
11496;SDS011;5805;51.542;7.230;2023-01-24T08:52:10;4.07;;;3.67;;
11496;SDS011;5805;51.542;7.230;2023-01-24T08:54:36;4.47;;;3.90;;
11496;SDS011;5805;51.542;7.230;2023-01-24T08:57:02;4.43;;;3.92;;
11496;SDS011;5805;51.542;7.230;2023-01-24T08:59:29;7.43;;;4.30;;
11496;SDS011;5805;51.542;7.230;2023-01-24T09:01:55;4.28;;;3.88;;
11496;SDS011;5805;51.542;7.230;2023-01-24T09:04:21;4.60;;;4.10;;
11496;SDS011;5805;51.542;7.230;2023-01-24T09:06:47;3.80;;;3.33;;
11496;SDS011;5805;51.542;7.230;2023-01-24T09:09:15;6.22;;;4.00;;
11496;SDS011;5805;51.542;7.230;2023-01-24T09:11:41;5.05;;;4.07;;
11496;SDS011;5805;51.542;7.230;2023-01-24T09:14:06;4.43;;;3.65;;
11496;SDS011;5805;51.542;7.230;2023-01-24T09:16:33;3.90;;;3.50;;
11496;SDS011;5805;51.542;7.230;2023-01-24T09:18:59;4.85;;;3.58;;
11496;SDS011;5805;51.542;7.230;2023-01-24T09:21:25;3.80;;;3.38;;
11496;SDS011;5805;51.542;7.230;2023-01-24T09:23:52;4.90;;;4.30;;
11496;SDS011;5805;51.542;7.230;2023-01-24T09:26:18;5.53;;;4.68;;
11496;SDS011;5805;51.542;7.230;2023-01-24T09:28:44;4.50;;;3.60;;
11496;SDS011;5805;51.542;7.230;2023-01-24T09:31:09;3.83;;;3.33;;
11496;SDS011;5805;51.542;7.230;2023-01-24T09:33:37;4.50;;;4.05;;
11496;SDS011;5805;51.542;7.230;2023-01-24T09:36:03;5.53;;;4.00;;
11496;SDS011;5805;51.542;7.230;2023-01-24T09:38:30;4.68;;;3.70;;
11496;SDS011;5805;51.542;7.230;2023-01-24T09:41:00;4.55;;;3.80;;
11496;SDS011;5805;51.542;7.230;2023-01-24T09:43:40;4.85;;;4.07;;
11496;SDS011;5805;51.542;7.230;2023-01-24T09:46:12;4.65;;;4.15;;
11496;SDS011;5805;51.542;7.230;2023-01-24T09:48:43;4.43;;;4.03;;
11496;SDS011;5805;51.542;7.230;2023-01-24T09:51:13;3.40;;;3.05;;
11496;SDS011;5805;51.542;7.230;2023-01-24T09:53:44;6.15;;;4.95;;
11496;SDS011;5805;51.542;7.230;2023-01-24T09:56:18;6.95;;;5.80;;
11496;SDS011;5805;51.542;7.230;2023-01-24T09:58:46;6.75;;;5.03;;
11496;SDS011;5805;51.542;7.230;2023-01-24T10:01:23;5.35;;;4.63;;
11496;SDS011;5805;51.542;7.230;2023-01-24T10:03:50;8.15;;;4.93;;
11496;SDS011;5805;51.542;7.230;2023-01-24T10:06:16;4.70;;;4.25;;
11496;SDS011;5805;51.542;7.230;2023-01-24T10:08:48;4.20;;;3.75;;
11496;SDS011;5805;51.542;7.230;2023-01-24T10:11:22;4.88;;;3.88;;
11496;SDS011;5805;51.542;7.230;2023-01-24T10:13:57;5.60;;;4.03;;
11496;SDS011;5805;51.542;7.230;2023-01-24T10:16:56;6.53;;;4.03;;
11496;SDS011;5805;51.542;7.230;2023-01-24T10:19:44;4.03;;;3.25;;
11496;SDS011;5805;51.542;7.230;2023-01-24T10:22:24;4.93;;;4.43;;
11496;SDS011;5805;51.542;7.230;2023-01-24T10:25:02;4.38;;;3.60;;
11496;SDS011;5805;51.542;7.230;2023-01-24T10:27:35;4.50;;;4.10;;
11496;SDS011;5805;51.542;7.230;2023-01-24T10:30:11;3.65;;;3.33;;
11496;SDS011;5805;51.542;7.230;2023-01-24T10:32:40;7.30;;;5.80;;
11496;SDS011;5805;51.542;7.230;2023-01-24T10:35:13;4.47;;;4.00;;
11496;SDS011;5805;51.542;7.230;2023-01-24T10:37:42;4.25;;;3.83;;
11496;SDS011;5805;51.542;7.230;2023-01-24T10:40:12;3.13;;;2.88;;
11496;SDS011;5805;51.542;7.230;2023-01-24T10:42:39;5.53;;;3.63;;
11496;SDS011;5805;51.542;7.230;2023-01-24T10:45:12;3.50;;;3.20;;
11496;SDS011;5805;51.542;7.230;2023-01-24T10:47:56;4.57;;;3.22;;
11496;SDS011;5805;51.542;7.230;2023-01-24T10:50:32;4.18;;;3.75;;
11496;SDS011;5805;51.542;7.230;2023-01-24T10:53:02;5.75;;;3.75;;
11496;SDS011;5805;51.542;7.230;2023-01-24T10:55:36;3.88;;;3.45;;
11496;SDS011;5805;51.542;7.230;2023-01-24T10:58:03;5.18;;;4.05;;
11496;SDS011;5805;51.542;7.230;2023-01-24T11:00:44;5.22;;;4.00;;
11496;SDS011;5805;51.542;7.230;2023-01-24T11:03:16;4.03;;;3.63;;
11496;SDS011;5805;51.542;7.230;2023-01-24T11:05:46;3.88;;;3.47;;
11496;SDS011;5805;51.542;7.230;2023-01-24T11:08:17;6.72;;;3.90;;
11496;SDS011;5805;51.542;7.230;2023-01-24T11:10:45;4.45;;;4.05;;
11496;SDS011;5805;51.542;7.230;2023-01-24T11:13:24;3.78;;;3.38;;
11496;SDS011;5805;51.542;7.230;2023-01-24T11:15:53;6.50;;;3.10;;
11496;SDS011;5805;51.542;7.230;2023-01-24T11:18:24;3.80;;;3.40;;
11496;SDS011;5805;51.542;7.230;2023-01-24T11:21:03;3.72;;;3.42;;
11496;SDS011;5805;51.542;7.230;2023-01-24T11:23:31;4.10;;;3.70;;
11496;SDS011;5805;51.542;7.230;2023-01-24T11:25:57;4.53;;;4.13;;
11496;SDS011;5805;51.542;7.230;2023-01-24T11:28:24;4.85;;;4.45;;
11496;SDS011;5805;51.542;7.230;2023-01-24T11:30:51;4.55;;;3.83;;
11496;SDS011;5805;51.542;7.230;2023-01-24T11:33:22;4.55;;;4.15;;
11496;SDS011;5805;51.542;7.230;2023-01-24T11:36:01;4.65;;;4.18;;
11496;SDS011;5805;51.542;7.230;2023-01-24T11:38:28;4.85;;;4.43;;
11496;SDS011;5805;51.542;7.230;2023-01-24T11:41:06;5.90;;;5.30;;
11496;SDS011;5805;51.542;7.230;2023-01-24T11:43:39;4.60;;;3.88;;
11496;SDS011;5805;51.542;7.230;2023-01-24T11:46:26;4.35;;;3.95;;
11496;SDS011;5805;51.542;7.230;2023-01-24T11:49:07;4.28;;;3.88;;
11496;SDS011;5805;51.542;7.230;2023-01-24T11:51:47;5.43;;;4.90;;
11496;SDS011;5805;51.542;7.230;2023-01-24T11:54:23;7.70;;;6.80;;
11496;SDS011;5805;51.542;7.230;2023-01-24T11:57:00;5.07;;;4.07;;
11496;SDS011;5805;51.542;7.230;2023-01-24T11:59:37;5.57;;;4.90;;
11496;SDS011;5805;51.542;7.230;2023-01-24T12:05:35;5.10;;;4.63;;
11496;SDS011;5805;51.542;7.230;2023-01-24T12:08:16;4.70;;;4.30;;
11496;SDS011;5805;51.542;7.230;2023-01-24T12:10:55;5.20;;;4.40;;
11496;SDS011;5805;51.542;7.230;2023-01-24T12:13:27;4.30;;;3.90;;
11496;SDS011;5805;51.542;7.230;2023-01-24T12:16:02;4.82;;;4.43;;
11496;SDS011;5805;51.542;7.230;2023-01-24T12:21:26;4.93;;;4.45;;
11496;SDS011;5805;51.542;7.230;2023-01-24T12:23:54;4.45;;;4.05;;
11496;SDS011;5805;51.542;7.230;2023-01-24T12:26:24;5.60;;;4.53;;
11496;SDS011;5805;51.542;7.230;2023-01-24T12:28:55;4.55;;;4.10;;
11496;SDS011;5805;51.542;7.230;2023-01-24T12:31:26;6.53;;;5.70;;
11496;SDS011;5805;51.542;7.230;2023-01-24T12:33:59;4.57;;;4.18;;
11496;SDS011;5805;51.542;7.230;2023-01-24T12:36:30;3.83;;;3.53;;
11496;SDS011;5805;51.542;7.230;2023-01-24T12:39:02;4.57;;;4.18;;
11496;SDS011;5805;51.542;7.230;2023-01-24T12:41:37;4.75;;;4.10;;
11496;SDS011;5805;51.542;7.230;2023-01-24T12:44:04;5.65;;;5.03;;
11496;SDS011;5805;51.542;7.230;2023-01-24T12:46:42;5.30;;;4.80;;
11496;SDS011;5805;51.542;7.230;2023-01-24T12:49:18;4.90;;;4.40;;
11496;SDS011;5805;51.542;7.230;2023-01-24T12:51:51;5.82;;;5.00;;
11496;SDS011;5805;51.542;7.230;2023-01-24T12:54:25;4.95;;;4.45;;
11496;SDS011;5805;51.542;7.230;2023-01-24T12:56:57;4.55;;;4.15;;
11496;SDS011;5805;51.542;7.230;2023-01-24T12:59:25;5.68;;;5.18;;
11496;SDS011;5805;51.542;7.230;2023-01-24T13:05:11;5.88;;;4.70;;
11496;SDS011;5805;51.542;7.230;2023-01-24T13:07:51;8.13;;;4.60;;
11496;SDS011;5805;51.542;7.230;2023-01-24T13:10:34;5.28;;;4.78;;
11496;SDS011;5805;51.542;7.230;2023-01-24T13:13:09;5.20;;;4.70;;
11496;SDS011;5805;51.542;7.230;2023-01-24T13:15:41;4.78;;;4.38;;
11496;SDS011;5805;51.542;7.230;2023-01-24T13:18:33;5.10;;;4.63;;
11496;SDS011;5805;51.542;7.230;2023-01-24T13:21:09;5.60;;;5.05;;
11496;SDS011;5805;51.542;7.230;2023-01-24T13:23:40;7.03;;;4.50;;
11496;SDS011;5805;51.542;7.230;2023-01-24T13:26:44;5.07;;;4.57;;
11496;SDS011;5805;51.542;7.230;2023-01-24T13:29:24;5.38;;;4.30;;
11496;SDS011;5805;51.542;7.230;2023-01-24T13:31:58;4.50;;;4.10;;
11496;SDS011;5805;51.542;7.230;2023-01-24T13:34:30;5.25;;;4.75;;
11496;SDS011;5805;51.542;7.230;2023-01-24T13:36:58;5.10;;;4.70;;
11496;SDS011;5805;51.542;7.230;2023-01-24T13:39:29;5.32;;;4.82;;
11496;SDS011;5805;51.542;7.230;2023-01-24T13:42:12;5.15;;;4.65;;
11496;SDS011;5805;51.542;7.230;2023-01-24T13:44:44;7.43;;;4.47;;
11496;SDS011;5805;51.542;7.230;2023-01-24T13:47:24;6.28;;;5.18;;
11496;SDS011;5805;51.542;7.230;2023-01-24T13:52:44;5.13;;;4.63;;
11496;SDS011;5805;51.542;7.230;2023-01-24T13:58:26;5.40;;;4.90;;
11496;SDS011;5805;51.542;7.230;2023-01-24T14:00:53;6.63;;;5.70;;
11496;SDS011;5805;51.542;7.230;2023-01-24T14:03:22;6.35;;;5.13;;
11496;SDS011;5805;51.542;7.230;2023-01-24T14:05:51;4.93;;;4.43;;
11496;SDS011;5805;51.542;7.230;2023-01-24T14:08:32;5.47;;;4.05;;
11496;SDS011;5805;51.542;7.230;2023-01-24T14:20:15;6.25;;;4.57;;
11496;SDS011;5805;51.542;7.230;2023-01-24T14:22:47;4.60;;;4.20;;
11496;SDS011;5805;51.542;7.230;2023-01-24T14:25:26;5.97;;;4.90;;
11496;SDS011;5805;51.542;7.230;2023-01-24T14:28:21;5.30;;;4.80;;
11496;SDS011;5805;51.542;7.230;2023-01-24T14:30:56;5.18;;;4.68;;
11496;SDS011;5805;51.542;7.230;2023-01-24T14:33:26;5.00;;;4.40;;
11496;SDS011;5805;51.542;7.230;2023-01-24T14:36:01;5.05;;;4.55;;
11496;SDS011;5805;51.542;7.230;2023-01-24T14:38:35;4.80;;;4.30;;
11496;SDS011;5805;51.542;7.230;2023-01-24T14:41:01;5.65;;;4.82;;
11496;SDS011;5805;51.542;7.230;2023-01-24T14:43:32;5.00;;;4.60;;
11496;SDS011;5805;51.542;7.230;2023-01-24T14:46:11;4.55;;;3.92;;
11496;SDS011;5805;51.542;7.230;2023-01-24T14:48:41;6.30;;;4.25;;
11496;SDS011;5805;51.542;7.230;2023-01-24T14:51:11;4.75;;;4.30;;
11496;SDS011;5805;51.542;7.230;2023-01-24T14:53:41;5.60;;;4.85;;
11496;SDS011;5805;51.542;7.230;2023-01-24T14:56:11;4.72;;;4.32;;
11496;SDS011;5805;51.542;7.230;2023-01-24T14:58:37;7.90;;;6.20;;
11496;SDS011;5805;51.542;7.230;2023-01-24T15:01:03;9.55;;;8.07;;
11496;SDS011;5805;51.542;7.230;2023-01-24T15:03:46;11.30;;;9.02;;
11496;SDS011;5805;51.542;7.230;2023-01-24T15:06:15;9.60;;;8.50;;
11496;SDS011;5805;51.542;7.230;2023-01-24T15:08:43;10.57;;;9.32;;
11496;SDS011;5805;51.542;7.230;2023-01-24T15:11:16;10.65;;;8.90;;
11496;SDS011;5805;51.542;7.230;2023-01-24T15:13:45;8.93;;;8.00;;
11496;SDS011;5805;51.542;7.230;2023-01-24T15:16:15;8.73;;;7.18;;
11496;SDS011;5805;51.542;7.230;2023-01-24T15:18:43;10.93;;;6.93;;
11496;SDS011;5805;51.542;7.230;2023-01-24T15:21:18;6.60;;;5.90;;
11496;SDS011;5805;51.542;7.230;2023-01-24T15:23:54;6.00;;;5.40;;
11496;SDS011;5805;51.542;7.230;2023-01-24T15:26:24;6.85;;;6.15;;
11496;SDS011;5805;51.542;7.230;2023-01-24T15:32:21;7.60;;;6.80;;
11496;SDS011;5805;51.542;7.230;2023-01-24T15:35:12;6.57;;;5.93;;
11496;SDS011;5805;51.542;7.230;2023-01-24T15:38:02;6.93;;;6.22;;
11496;SDS011;5805;51.542;7.230;2023-01-24T15:40:47;8.43;;;6.38;;
11496;SDS011;5805;51.542;7.230;2023-01-24T15:43:17;7.13;;;6.43;;
11496;SDS011;5805;51.542;7.230;2023-01-24T15:45:46;8.50;;;7.28;;